AirNav   Jet Aviation Boston
 
 1056 users online  

5ND9 Deck Airport
Hillsboro, North Dakota, USA

GOING TO HILLSBORO?


FAA INFORMATION EFFECTIVE 21 JUNE 2018

Location

FAA Identifier: 5ND9
Lat/Long: 47-29-04.9270N / 097-04-29.3130W
47-29.082117N / 097-04.488550W
47.4847019 / -97.0748092
(estimated)
Elevation: 916 ft. / 279 m (estimated)
Variation: 06E (1985)
From city: 4 miles N of HILLSBORO, ND
Time zone: UTC -5 (UTC -6 during Standard Time)
Zip code: 58223

Airport Operations

Airport use: Private use. Permission required prior to landing
Activation date: 04/1977
Control tower: no
ARTCC: MINNEAPOLIS CENTER
FSS: GRAND FORKS FLIGHT SERVICE STATION
Attendance: MON-SAT DAYLIGHT HOURS
Wind indicator: yes
Segmented circle: no

Nearby radio navigation aids

VOR radial/distance  VOR name  Freq  Var
GFKr162/28.6GRAND FORKS VOR/DME114.3009E

 
NDB name  Hdg/Dist  Freq  Var  ID
CROOKSTON218/28.340003ECKN -.-. -.- -.

Airport Services

Runway Information

Runway 16/34

Dimensions: 4400 x 60 ft. / 1341 x 18 m
Surface: turf
RUNWAY 16  RUNWAY 34
Traffic pattern: leftleft

Airport Ownership and Management from official FAA records

Ownership: Privately-owned
Owner: SKY TRACTOR SUPPLY CO LLC
16285 5TH STREET NE
HILLSBORO, ND 58045
Phone 701-636-5880
Manager: MICHAEL DECK
16285 5TH STREET NE
HILLSBORO, ND 58045
Phone 701-636-5880

Airport Operational Statistics

Aircraft based on the field: 6
Single engine airplanes: 6
    

Instrument Procedures

There are no published instrument procedures at 5ND9.

Some nearby airports with instrument procedures:

3H4 - Hillsboro Municipal Airport (8 nm S)
4V4 - Northwood Municipal Airport-Vince Field (25 nm NW)
KGFK - Grand Forks International Airport (28 nm N)
KCKN - Crookston Municipal Airport-Kirkwood Field (28 nm NE)
D00 - Norman County Ada/Twin Valley Airport (31 nm SE)
 
Loc | Ops | Rwys | IFR | FBO | Links
Com | Nav | Svcs | Stats | Notes

Mandan Aero Center
 
Area around 5ND9 (Deck Airport)
 
Road maps at: MapQuest Bing Google
 
Aerial photo
No photo
 
Sectional chart

 
Airport distance calculator
Flying to Deck Airport? Find the distance to fly.

From to 5ND9

Sunrise and sunset
Times for 23-Jun-2018
 Local
(UTC-5)
 Zulu
(UTC)
Morning civil twilight04:5209:52
Sunrise05:3210:32
Sunset21:2802:28
Evening civil twilight22:0903:09

Current date and time
Zulu (UTC)  23-Jun-2018 19:28:46
Local (UTC-5)  23-Jun-2018 14:28:46
 
METAR
KGFK 
28nm N 
231853Z 17005KT 10SM BKN045 BKN250 29/17 A2968 RMK AO2 LTG DSNT SE-W SLP046 T02940167
KCKN 
29nm NE 
231915Z AUTO 20008KT 10SM CLR 26/17 A2971 RMK AO2 LTG DSNT S AND SW
KRDR 
32nm NW 
231907Z 16007KT 10SM VCTS FEW050CB 27/17 A2969 RMK AO2A TSE07 SLP055
KFAR 
35nm S 
231853Z 16009KT 10SM CLR 28/14 A2971 RMK AO2 SLP057 T02830139
KS32 
42nm W 
231915Z AUTO 19008G15KT 10SM CLR 27/14 A2972 RMK AO2
KJKJ 
42nm SE 
231915Z AUTO 18007KT 10SM CLR 28/12 A2972 RMK AO2
K3N8 
48nm E 
231915Z AUTO 18005KT 10SM SCT043 27/16 A2973 RMK AO2 T02650158
TAF
KGFK 
28nm N 
231739Z 2318/2418 16006KT P6SM FEW040 SCT250 FM232000 14008KT P6SM VCTS BKN050CB FM240100 12006KT P6SM BKN200
KRDR 
32nm NW 
231800Z 2318/2424 16006KT 9999 SCT070 BKN100 QNH2967INS BECMG 2318/2319 15012KT 9000 -SHRA SCT050 BKN060 OVC100 QNH2969INS TEMPO 2319/2323 15015G25KT 8000 -TSRA SCT040 OVC050CB BECMG 2405/2406 09006KT 9999 NSW SCT040 BKN050 BKN100 QNH2972INS BECMG 2418/2419 15012KT 9000 -SHRA SCT050 BKN060 OVC100 QNH2969INS TEMPO 2421/2423 13015G25KT 8000 -TSRA SCT020 OVC030CB TX29/2320Z TN15/2409Z
KFAR 
35nm S 
231739Z 2318/2418 20008KT P6SM SCT150 FM232000 14008KT P6SM VCTS BKN150CB FM240200 12005KT P6SM BKN140
NOTAMs
Click for the latest NOTAMs
NOTAMs are issued by the DoD/FAA and will open in a separate window not controlled by AirNav.

 

 
 

Would you like to see your business listed on this page?

 If your business provides an interesting product or service to pilots, flight crews, aircraft, or users of the Deck Airport, you should consider listing it here.  To start the listing process, click on the button below
 
Add a business
 

Other Pages about Deck Airport

Update a link
 
Copyright © AirNav, LLC. All rights reserved. Privacy Policy  Contact